Time;durP1;ratioP1;P1;durP2;ratioP2;P2;SDS_P1;SDS_P2;PMS_P1;PMS_P2;Temp;Humidity;BMP_temperature;BMP_pressure;BME280_temperature;BME280_humidity;BME280_pressure;Samples;Min_cycle;Max_cycle;Signal;HPM_P1;HPM_P2
2021/06/09 00:00:08;;;;;;;;;;;;;;;15.48;100.00;96370.59;1260539;23;19929;-77
2021/06/09 00:00:39;;;;;;;;;;;;;;;15.46;100.00;96370.91;1260450;23;19905;-78
2021/06/09 00:01:09;;;;;;;;;;;;;;;15.47;100.00;96369.00;1261705;23;19905;-77
2021/06/09 00:01:40;;;;;;;;;;;;;;;15.42;100.00;96367.19;1273299;23;19931;-78
2021/06/09 00:02:10;;;;;;;;;;;;;;;15.41;100.00;96368.28;1272870;23;19911;-77
2021/06/09 00:02:41;;;;;;;;;;;;;;;15.36;100.00;96365.66;1278752;23;20333;-77
2021/06/09 00:03:11;;;;;;;;;;;;;;;15.34;100.00;96367.84;1278702;23;19911;-77
2021/06/09 00:03:41;;;;;;;;;;;;;;;15.34;100.00;96367.84;1278650;23;19991;-78
2021/06/09 00:04:12;;;;;;;;;;;;;;;15.34;100.00;96367.84;1278677;23;19982;-78
2021/06/09 00:04:42;;;;;;;;;;;;;;;15.33;100.00;96366.25;1278623;23;19919;-77
2021/06/09 00:05:12;;;;;;;;;;;;;;;15.33;100.00;96369.72;1278673;23;19908;-77
2021/06/09 00:05:42;;;;;;;;;;;;;;;15.36;100.00;96360.28;1272545;23;20251;-77
2021/06/09 00:06:13;;;;;;;;;;;;;;;15.36;100.00;96368.38;1266471;23;19905;-77
2021/06/09 00:06:43;;;;;;;;;;;;;;;15.38;100.00;96362.69;1266354;23;20354;-78
2021/06/09 00:07:13;;;;;;;;;;;;;;;15.37;100.00;96367.25;1260441;23;19988;-77
2021/06/09 00:07:44;;;;;;;;;;;;;;;15.37;100.00;96367.25;1266306;23;19905;-77
2021/06/09 00:08:14;;;;;;;;;;;;;;;15.39;100.00;96361.56;1272530;23;19955;-77
2021/06/09 00:08:44;;;;;;;;;;;;;;;15.39;100.00;96364.28;1260226;23;20376;-77
2021/06/09 00:09:14;;;;;;;;;;;;;;;15.40;100.00;96363.97;1266284;23;19905;-77
2021/06/09 00:09:45;;;;;;;;;;;;;;;15.41;100.00;96373.69;1266517;23;19905;-78
2021/06/09 00:10:15;;;;;;;;;;;;;;;15.40;100.00;96363.97;1266320;23;19940;-77
2021/06/09 00:10:48;;;;;;;;;;;;;;;15.38;100.00;96366.16;1272489;23;19911;-77
2021/06/09 00:11:18;;;;;;;;;;;;;;;15.38;100.00;96358.09;1278595;23;19908;-77
2021/06/09 00:11:48;;;;;;;;;;;;;;;15.38;100.00;96363.47;1272813;23;20282;-77
2021/06/09 00:12:18;;;;;;;;;;;;;;;15.38;100.00;96358.09;1266999;23;19904;-78
2021/06/09 00:12:49;;;;;;;;;;;;;;;15.37;100.00;96356.50;1272595;23;19905;-77
2021/06/09 00:13:19;;;;;;;;;;;;;;;15.38;100.00;96359.97;1272619;23;19904;-77
2021/06/09 00:13:49;;;;;;;;;;;;;;;15.36;100.00;96365.66;1272686;23;19904;-77
2021/06/09 00:14:20;;;;;;;;;;;;;;;15.33;100.00;96361.66;1278810;23;20270;-77
2021/06/09 00:14:50;;;;;;;;;;;;;;;15.32;100.00;96360.06;1272603;23;20340;-78
2021/06/09 00:15:21;;;;;;;;;;;;;;;15.31;100.00;96363.03;1266423;23;19911;-77
2021/06/09 00:15:51;;;;;;;;;;;;;;;15.32;100.00;96356.56;1266503;23;19905;-77
2021/06/09 00:16:22;;;;;;;;;;;;;;;15.30;100.00;96359.56;1260519;23;20330;-78
2021/06/09 00:16:53;;;;;;;;;;;;;;;15.31;100.00;96352.28;1266832;23;20370;-76
2021/06/09 00:17:23;;;;;;;;;;;;;;;15.30;100.00;96356.03;1266318;23;19912;-78
2021/06/09 00:17:53;;;;;;;;;;;;;;;15.29;100.00;96357.13;1260495;23;19963;-77
2021/06/09 00:18:23;;;;;;;;;;;;;;;15.26;100.00;96355.84;1266498;23;19994;-77
2021/06/09 00:18:54;;;;;;;;;;;;;;;15.25;100.00;96359.63;1272423;23;19905;-76
2021/06/09 00:19:26;;;;;;;;;;;;;;;15.26;100.00;96352.34;1272501;23;19909;-77
2021/06/09 00:19:56;;;;;;;;;;;;;;;15.26;100.00;96363.13;1272559;23;19909;-77
2021/06/09 00:20:26;;;;;;;;;;;;;;;15.25;100.00;96356.09;1278671;23;20318;-77
2021/06/09 00:20:57;;;;;;;;;;;;;;;15.24;100.00;96351.81;1272504;23;19905;-77
2021/06/09 00:21:27;;;;;;;;;;;;;;;15.24;100.00;96354.50;1272643;23;19928;-78
2021/06/09 00:21:57;;;;;;;;;;;;;;;15.24;100.00;96349.94;1278671;23;19904;-77
2021/06/09 00:22:29;;;;;;;;;;;;;;;15.23;100.00;96353.72;1278765;23;19923;-78
2021/06/09 00:22:59;;;;;;;;;;;;;;;15.21;100.00;96355.13;1279130;23;19904;-77
2021/06/09 00:23:30;;;;;;;;;;;;;;;15.21;100.00;96358.59;1278667;23;19943;-77
2021/06/09 00:24:00;;;;;;;;;;;;;;;15.21;100.00;96350.53;1278573;23;20234;-77
2021/06/09 00:24:31;;;;;;;;;;;;;;;15.21;100.00;96357.81;1272507;23;19904;-77
2021/06/09 00:25:01;;;;;;;;;;;;;;;15.23;100.00;96358.31;1272546;23;19904;-78
2021/06/09 00:25:31;;;;;;;;;;;;;;;15.25;100.00;96356.09;1266562;23;19904;-77
2021/06/09 00:26:03;;;;;;;;;;;;;;;15.27;100.00;96362.03;1272495;23;19905;-77
2021/06/09 00:26:34;;;;;;;;;;;;;;;15.32;100.00;96364.66;1278671;23;19904;-77
2021/06/09 00:27:04;;;;;;;;;;;;;;;15.30;100.00;96359.56;1278639;23;19908;-77
2021/06/09 00:27:34;;;;;;;;;;;;;;;15.30;100.00;96356.03;1278956;23;19978;-77
2021/06/09 00:28:05;;;;;;;;;;;;;;;15.32;100.00;96354.66;1279005;23;19908;-77
2021/06/09 00:28:36;;;;;;;;;;;;;;;15.34;100.00;96357.06;1279119;23;19904;-77
2021/06/09 00:29:06;;;;;;;;;;;;;;;15.34;100.00;96357.88;1279005;23;19912;-76
2021/06/09 00:29:36;;;;;;;;;;;;;;;15.34;100.00;96357.06;1279090;23;19912;-75
2021/06/09 00:30:07;;;;;;;;;;;;;;;15.34;100.00;96357.88;1279050;23;19915;-75
2021/06/09 00:30:37;;;;;;;;;;;;;;;15.31;100.00;96357.66;1279066;23;20281;-75
2021/06/09 00:31:08;;;;;;;;;;;;;;;15.30;100.00;96353.34;1279301;23;19908;-75
2021/06/09 00:31:38;;;;;;;;;;;;;;;15.29;100.00;96357.94;1279413;23;19987;-76
2021/06/09 00:32:08;;;;;;;;;;;;;;;15.28;100.00;96359.03;1279447;23;19918;-75
2021/06/09 00:32:38;;;;;;;;;;;;;;;15.27;100.00;96352.03;1272826;23;19904;-76
2021/06/09 00:33:09;;;;;;;;;;;;;;;15.27;100.00;96346.66;1272919;23;19951;-76
2021/06/09 00:33:39;;;;;;;;;;;;;;;15.27;100.00;96352.03;1272857;23;19904;-75
2021/06/09 00:34:09;;;;;;;;;;;;;;;15.30;100.00;96348.78;1266746;23;20299;-76
2021/06/09 00:34:40;;;;;;;;;;;;;;;15.30;100.00;96350.66;1272887;23;19952;-76
2021/06/09 00:35:10;;;;;;;;;;;;;;;15.31;100.00;96339.59;1278951;23;19941;-75
2021/06/09 00:35:41;;;;;;;;;;;;;;;15.32;100.00;96348.50;1279110;23;19983;-76
2021/06/09 00:36:11;;;;;;;;;;;;;;;15.32;100.00;96343.09;1273118;23;19908;-75
2021/06/09 00:36:41;;;;;;;;;;;;;;;15.31;100.00;96344.19;1273266;23;19904;-76
2021/06/09 00:37:12;;;;;;;;;;;;;;;15.29;100.00;96349.06;1266859;23;19932;-76
2021/06/09 00:37:42;;;;;;;;;;;;;;;15.28;100.00;96342.88;1267250;23;19912;-76
2021/06/09 00:38:13;;;;;;;;;;;;;;;15.28;100.00;96344.78;1260727;23;20281;-76
2021/06/09 00:38:43;;;;;;;;;;;;;;;15.28;100.00;96348.25;1261148;23;19912;-77
2021/06/09 00:39:13;;;;;;;;;;;;;;;15.28;100.00;96342.88;1272886;23;20012;-76
2021/06/09 00:39:44;;;;;;;;;;;;;;;15.28;100.00;96344.78;1273231;23;19905;-76
2021/06/09 00:40:14;;;;;;;;;;;;;;;15.27;100.00;96340.47;1279205;23;19912;-76
2021/06/09 00:40:44;;;;;;;;;;;;;;;15.25;100.00;96339.94;1279605;23;19928;-76
2021/06/09 00:41:15;;;;;;;;;;;;;;;15.22;100.00;96338.66;1279457;23;19904;-76
2021/06/09 00:41:45;;;;;;;;;;;;;;;15.18;100.00;96343.00;1279568;23;20233;-76
2021/06/09 00:42:19;;;;;;;;;;;;;;;15.15;100.00;96346.31;1279463;23;19911;-76
2021/06/09 00:43:02;;;;;;;;;;;;;;;15.18;100.00;96340.31;1279381;23;19905;-76
2021/06/09 00:43:34;;;;;;;;;;;;;;;15.20;100.00;96346.25;1278999;23;19983;-77
2021/06/09 00:44:04;;;;;;;;;;;;;;;15.19;100.00;96344.59;1279126;23;19904;-76
2021/06/09 00:44:34;;;;;;;;;;;;;;;15.19;100.00;96341.13;1272945;23;19905;-77
2021/06/09 00:45:05;;;;;;;;;;;;;;;15.20;100.00;96346.25;1267172;23;19901;-77
2021/06/09 00:45:36;;;;;;;;;;;;;;;15.21;100.00;96347.03;1273201;23;19904;-76
2021/06/09 00:46:09;;;;;;;;;;;;;;;15.21;100.00;96342.44;1267093;23;19953;-78
2021/06/09 00:46:40;;;;;;;;;;;;;;;15.21;100.00;96352.41;1266822;23;19908;-77
2021/06/09 00:47:10;;;;;;;;;;;;;;;15.20;100.00;96340.03;1267007;23;19901;-77
2021/06/09 00:47:41;;;;;;;;;;;;;;;15.20;100.00;96346.25;1267461;23;19904;-77
2021/06/09 00:48:11;;;;;;;;;;;;;;;15.17;100.00;96343.31;1266793;23;19942;-76
2021/06/09 00:48:42;;;;;;;;;;;;;;;15.15;100.00;96343.63;1273043;23;19912;-77
2021/06/09 00:49:12;;;;;;;;;;;;;;;15.14;100.00;96346.56;1261063;23;19908;-76
2021/06/09 00:49:42;;;;;;;;;;;;;;;15.12;100.00;96343.38;1266966;23;19909;-77
2021/06/09 00:50:13;;;;;;;;;;;;;;;15.10;100.00;96341.00;1266920;23;20295;-76
2021/06/09 00:50:43;;;;;;;;;;;;;;;15.11;100.00;96341.78;1260899;23;19905;-77
2021/06/09 00:51:16;;;;;;;;;;;;;;;15.09;100.00;96348.25;1260859;23;19905;-77
2021/06/09 00:51:47;;;;;;;;;;;;;;;15.09;100.00;96342.06;1254953;23;19905;-77
2021/06/09 00:52:23;;;;;;;;;;;;;;;15.06;100.00;96340.75;1255629;23;19925;-77
2021/06/09 00:52:54;;;;;;;;;;;;;;;15.06;100.00;96348.03;1264631;23;19909;-77
2021/06/09 00:53:28;;;;;;;;;;;;;;;15.05;100.00;96343.75;1274552;23;20266;-76
2021/06/09 00:54:03;;;;;;;;;;;;;;;15.05;100.00;96347.25;1278985;23;19908;-77
2021/06/09 00:54:33;;;;;;;;;;;;;;;15.03;100.00;96346.72;1266825;23;19917;-76
2021/06/09 00:55:04;;;;;;;;;;;;;;;15.02;100.00;96347.81;1266799;23;19913;-76
2021/06/09 00:55:34;;;;;;;;;;;;;;;15.01;100.00;96335.44;1261711;23;19912;-76
2021/06/09 00:56:06;;;;;;;;;;;;;;;15.00;100.00;96344.63;1267727;23;20389;-76
2021/06/09 00:56:37;;;;;;;;;;;;;;;15.02;100.00;96341.63;1272759;23;19905;-76
2021/06/09 00:57:07;;;;;;;;;;;;;;;15.00;100.00;96336.53;1267182;23;19905;-76
2021/06/09 00:57:38;;;;;;;;;;;;;;;15.00;100.00;96341.94;1266681;23;19905;-76
2021/06/09 00:58:08;;;;;;;;;;;;;;;15.00;100.00;96341.13;1266681;23;19968;-77
2021/06/09 00:58:39;;;;;;;;;;;;;;;14.99;100.00;96342.19;1260649;23;19929;-76
2021/06/09 00:59:09;;;;;;;;;;;;;;;14.99;100.00;96337.59;1266850;23;19944;-76
2021/06/09 00:59:40;;;;;;;;;;;;;;;14.98;100.00;96336.00;1266808;23;19905;-76
2021/06/09 01:00:10;;;;;;;;;;;;;;;15.00;100.00;96341.94;1266879;23;20254;-77
2021/06/09 01:00:41;;;;;;;;;;;;;;;15.03;100.00;96343.22;1272799;23;19904;-76
2021/06/09 01:01:11;;;;;;;;;;;;;;;15.06;100.00;96345.34;1272938;23;19951;-77
2021/06/09 01:01:42;;;;;;;;;;;;;;;15.07;100.00;96339.66;1279006;23;19904;-77
2021/06/09 01:02:12;;;;;;;;;;;;;;;15.12;100.00;96349.56;1278976;23;19900;-77
2021/06/09 01:02:45;;;;;;;;;;;;;;;15.12;100.00;96344.19;1279368;23;19904;-76
2021/06/09 01:03:16;;;;;;;;;;;;;;;15.12;100.00;96351.47;1278915;23;20261;-77
2021/06/09 01:03:46;;;;;;;;;;;;;;;15.13;100.00;96342.28;1279052;23;19904;-76
2021/06/09 01:04:17;;;;;;;;;;;;;;;15.14;100.00;96351.97;1279060;23;19900;-76
2021/06/09 01:04:47;;;;;;;;;;;;;;;15.16;100.00;96345.22;1278977;23;19906;-76
2021/06/09 01:05:17;;;;;;;;;;;;;;;15.12;100.00;96343.38;1279211;23;19928;-76
2021/06/09 01:05:48;;;;;;;;;;;;;;;15.09;100.00;96347.44;1279345;23;19959;-76
2021/06/09 01:06:18;;;;;;;;;;;;;;;15.07;100.00;96342.34;1279283;23;19935;-77
2021/06/09 01:06:48;;;;;;;;;;;;;;;15.07;100.00;96349.63;1278811;23;19904;-76
2021/06/09 01:07:19;;;;;;;;;;;;;;;15.08;100.00;96343.16;1266556;23;19908;-76
2021/06/09 01:07:49;;;;;;;;;;;;;;;15.08;100.00;96348.53;1266760;23;19905;-76
2021/06/09 01:08:19;;;;;;;;;;;;;;;15.07;100.00;96342.34;1260657;23;19925;-76
2021/06/09 01:08:51;;;;;;;;;;;;;;;15.12;100.00;96344.19;1260701;23;19905;-76
2021/06/09 01:09:22;;;;;;;;;;;;;;;15.16;100.00;96347.91;1272726;23;19901;-77
2021/06/09 01:09:52;;;;;;;;;;;;;;;15.15;100.00;96342.78;1260899;23;19905;-76
2021/06/09 01:10:22;;;;;;;;;;;;;;;15.13;100.00;96343.09;1267043;23;20311;-76
2021/06/09 01:10:53;;;;;;;;;;;;;;;15.13;100.00;96345.78;1272828;23;19904;-76
2021/06/09 01:11:23;;;;;;;;;;;;;;;15.16;100.00;96347.91;1266638;23;19901;-76
2021/06/09 01:11:54;;;;;;;;;;;;;;;15.16;100.00;96352.50;1272800;23;19912;-76
2021/06/09 01:12:24;;;;;;;;;;;;;;;15.17;100.00;96354.09;1266614;23;20282;-76
2021/06/09 01:12:55;;;;;;;;;;;;;;;15.17;100.00;96352.19;1254724;23;19910;-76
2021/06/09 01:13:27;;;;;;;;;;;;;;;15.19;100.00;96350.00;1260583;23;19908;-76
2021/06/09 01:13:57;;;;;;;;;;;;;;;15.19;100.00;96350.00;1261528;23;20348;-76
2021/06/09 01:14:27;;;;;;;;;;;;;;;15.20;100.00;96354.31;1261801;23;19937;-76
2021/06/09 01:14:58;;;;;;;;;;;;;;;15.19;100.00;96352.69;1266754;23;19905;-76
2021/06/09 01:15:28;;;;;;;;;;;;;;;15.17;100.00;96351.38;1266966;23;20306;-76
2021/06/09 01:15:58;;;;;;;;;;;;;;;15.18;100.00;96353.78;1266798;23;19911;-76
2021/06/09 01:16:28;;;;;;;;;;;;;;;15.18;100.00;96348.41;1266632;23;19943;-76
2021/06/09 01:16:59;;;;;;;;;;;;;;;15.19;100.00;96354.59;1266847;23;19912;-76
2021/06/09 01:17:29;;;;;;;;;;;;;;;15.20;100.00;96348.09;1266757;23;20361;-76
2021/06/09 01:17:59;;;;;;;;;;;;;;;15.19;100.00;96349.19;1272855;23;19905;-76
2021/06/09 01:18:30;;;;;;;;;;;;;;;15.16;100.00;96347.09;1278888;23;19901;-76
2021/06/09 01:19:00;;;;;;;;;;;;;;;15.15;100.00;96348.16;1266664;23;20339;-77
2021/06/09 01:19:30;;;;;;;;;;;;;;;15.13;100.00;96351.16;1266648;23;20325;-76
2021/06/09 01:20:00;;;;;;;;;;;;;;;15.11;100.00;96353.34;1260544;23;19905;-76
2021/06/09 01:20:31;;;;;;;;;;;;;;;15.09;100.00;96342.84;1260636;23;19925;-76
2021/06/09 01:21:01;;;;;;;;;;;;;;;15.07;100.00;96346.94;1266552;23;19905;-76
2021/06/09 01:21:32;;;;;;;;;;;;;;;15.03;100.00;96346.72;1266555;23;19908;-75
2021/06/09 01:22:02;;;;;;;;;;;;;;;15.02;100.00;96347.81;1266508;23;19905;-75
2021/06/09 01:22:33;;;;;;;;;;;;;;;14.99;100.00;96351.06;1266688;23;19975;-75
2021/06/09 01:23:03;;;;;;;;;;;;;;;14.96;100.00;96346.28;1266715;23;19905;-75
2021/06/09 01:23:33;;;;;;;;;;;;;;;14.95;100.00;96342.00;1266597;23;19901;-75
2021/06/09 01:24:04;;;;;;;;;;;;;;;14.93;100.00;96344.16;1266630;23;19987;-75
2021/06/09 01:24:34;;;;;;;;;;;;;;;14.93;100.00;96351.44;1278958;23;20296;-76
2021/06/09 01:25:05;;;;;;;;;;;;;;;14.91;100.00;96342.84;1272808;23;19911;-75
2021/06/09 01:25:35;;;;;;;;;;;;;;;14.89;100.00;96340.44;1278892;23;19900;-76
2021/06/09 01:26:06;;;;;;;;;;;;;;;14.88;100.00;96349.59;1278865;23;19904;-75
2021/06/09 01:26:36;;;;;;;;;;;;;;;14.86;100.00;96351.78;1278690;23;19901;-75
2021/06/09 01:27:07;;;;;;;;;;;;;;;14.86;100.00;96345.59;1278813;23;20241;-76
2021/06/09 01:27:37;;;;;;;;;;;;;;;14.82;100.00;96354.25;1278911;23;20281;-76
2021/06/09 01:28:08;;;;;;;;;;;;;;;14.83;100.00;96355.84;1272938;23;19971;-76
2021/06/09 01:28:38;;;;;;;;;;;;;;;14.82;100.00;96356.13;1272604;23;20434;-75
2021/06/09 01:29:08;;;;;;;;;;;;;;;14.80;100.00;96347.56;1272828;23;19905;-76
2021/06/09 01:29:39;;;;;;;;;;;;;;;14.79;100.00;96351.31;1272742;23;19904;-75
2021/06/09 01:30:10;;;;;;;;;;;;;;;14.76;100.00;96349.22;1266764;23;19967;-75
2021/06/09 01:30:40;;;;;;;;;;;;;;;14.76;100.00;96354.59;1272870;23;20306;-77
2021/06/09 01:31:11;;;;;;;;;;;;;;;14.74;100.00;96346.81;1278938;23;19904;-75
2021/06/09 01:31:41;;;;;;;;;;;;;;;14.73;100.00;96347.09;1266645;23;19905;-76
2021/06/09 01:32:11;;;;;;;;;;;;;;;14.72;100.00;96348.97;1272771;23;20366;-75
2021/06/09 01:32:42;;;;;;;;;;;;;;;14.71;100.00;96354.66;1272650;23;19913;-75
2021/06/09 01:33:12;;;;;;;;;;;;;;;14.70;100.00;96345.00;1272766;23;19916;-75
2021/06/09 01:33:42;;;;;;;;;;;;;;;14.70;100.00;96348.47;1272732;23;20346;-75
2021/06/09 01:34:13;;;;;;;;;;;;;;;14.73;100.00;96355.16;1266585;23;20339;-75
2021/06/09 01:34:43;;;;;;;;;;;;;;;14.75;100.00;96353.00;1272526;23;19938;-75
2021/06/09 01:35:13;;;;;;;;;;;;;;;14.78;100.00;96347.03;1266744;23;19904;-75
2021/06/09 01:35:44;;;;;;;;;;;;;;;14.78;100.00;96355.09;1266489;23;20335;-75
2021/06/09 01:36:14;;;;;;;;;;;;;;;14.78;100.00;96355.09;1266671;23;19905;-75
2021/06/09 01:36:44;;;;;;;;;;;;;;;14.80;100.00;96351.06;1272697;23;19904;-75
2021/06/09 01:37:14;;;;;;;;;;;;;;;14.82;100.00;96356.13;1272575;23;19931;-76
2021/06/09 01:37:45;;;;;;;;;;;;;;;14.81;100.00;96347.25;1272631;23;19999;-75
2021/06/09 01:38:15;;;;;;;;;;;;;;;14.85;100.00;96357.47;1266587;23;20350;-76
2021/06/09 01:38:45;;;;;;;;;;;;;;;14.86;100.00;96341.03;1266811;23;19904;-75
2021/06/09 01:39:16;;;;;;;;;;;;;;;14.88;100.00;96346.91;1266462;23;19905;-76
2021/06/09 01:39:46;;;;;;;;;;;;;;;14.88;100.00;96343.41;1260528;23;20402;-75
2021/06/09 01:40:18;;;;;;;;;;;;;;;14.88;100.00;96354.97;1260552;23;19925;-75
2021/06/09 01:40:48;;;;;;;;;;;;;;;14.88;100.00;96356.88;1261200;23;20315;-76
2021/06/09 01:41:22;;;;;;;;;;;;;;;14.87;100.00;96353.38;1266878;23;19905;-76
2021/06/09 01:41:52;;;;;;;;;;;;;;;14.89;100.00;96356.56;1273488;23;20318;-75
2021/06/09 01:42:23;;;;;;;;;;;;;;;14.89;100.00;96356.56;1272372;23;19956;-75
2021/06/09 01:42:53;;;;;;;;;;;;;;;14.89;100.00;96350.41;1273286;23;19952;-76
2021/06/09 01:43:24;;;;;;;;;;;;;;;14.88;100.00;96354.97;1272856;23;19984;-76
2021/06/09 01:43:54;;;;;;;;;;;;;;;14.85;100.00;96352.88;1272710;23;20293;-76
2021/06/09 01:44:24;;;;;;;;;;;;;;;14.83;100.00;96361.22;1272722;23;20307;-75
2021/06/09 01:44:55;;;;;;;;;;;;;;;14.82;100.00;96356.13;1272698;23;19912;-76
2021/06/09 01:45:26;;;;;;;;;;;;;;;14.85;100.00;96358.25;1272639;23;19901;-76
2021/06/09 01:45:56;;;;;;;;;;;;;;;14.83;100.00;96353.16;1266616;23;19909;-76
2021/06/09 01:46:26;;;;;;;;;;;;;;;14.82;100.00;96356.13;1260450;23;19945;-76
2021/06/09 01:46:57;;;;;;;;;;;;;;;14.82;100.00;96351.56;1260669;23;20311;-76
2021/06/09 01:47:27;;;;;;;;;;;;;;;14.84;100.00;96359.31;1260499;23;19901;-76
2021/06/09 01:47:57;;;;;;;;;;;;;;;14.86;100.00;96354.47;1266574;23;20316;-76
2021/06/09 01:48:28;;;;;;;;;;;;;;;14.86;100.00;96354.47;1266465;23;19901;-76
2021/06/09 01:48:58;;;;;;;;;;;;;;;14.87;100.00;96347.19;1260535;23;19909;-75
2021/06/09 01:49:28;;;;;;;;;;;;;;;14.87;100.00;96361.47;1266548;23;19925;-76
2021/06/09 01:49:58;;;;;;;;;;;;;;;14.83;100.00;96350.47;1266504;23;19916;-76
2021/06/09 01:50:29;;;;;;;;;;;;;;;14.82;100.00;96351.56;1266682;23;19991;-75
2021/06/09 01:50:59;;;;;;;;;;;;;;;14.83;100.00;96349.66;1272507;23;20339;-75
2021/06/09 01:51:29;;;;;;;;;;;;;;;14.82;100.00;96351.56;1266544;23;19901;-76
2021/06/09 01:52:00;;;;;;;;;;;;;;;14.82;100.00;96354.25;1266639;23;19909;-75
2021/06/09 01:52:30;;;;;;;;;;;;;;;14.84;100.00;96351.25;1266671;23;19947;-77
2021/06/09 01:53:03;;;;;;;;;;;;;;;14.86;100.00;96351.78;1272555;23;20325;-75
2021/06/09 01:53:33;;;;;;;;;;;;;;;14.88;100.00;96354.19;1278832;23;19907;-76
2021/06/09 01:54:05;;;;;;;;;;;;;;;14.88;100.00;96348.81;1278894;23;20318;-76
2021/06/09 01:54:35;;;;;;;;;;;;;;;14.88;100.00;96351.50;1278721;23;19982;-76
2021/06/09 01:55:06;;;;;;;;;;;;;;;14.87;100.00;96350.69;1272622;23;19904;-75
2021/06/09 01:55:37;;;;;;;;;;;;;;;14.90;100.00;96352.03;1266391;23;19916;-75
2021/06/09 01:56:07;;;;;;;;;;;;;;;14.86;100.00;96354.47;1260394;23;19984;-76
2021/06/09 01:56:37;;;;;;;;;;;;;;;14.82;100.00;96354.25;1248585;23;19902;-75
2021/06/09 01:57:08;;;;;;;;;;;;;;;14.84;100.00;96351.25;1260432;23;19905;-76
2021/06/09 01:57:38;;;;;;;;;;;;;;;14.82;100.00;96358.81;1266576;23;19901;-75
2021/06/09 01:58:12;;;;;;;;;;;;;;;14.79;100.00;96351.31;1260397;23;20267;-76
2021/06/09 01:58:42;;;;;;;;;;;;;;;14.78;100.00;96355.91;1266531;23;19901;-76
2021/06/09 01:59:13;;;;;;;;;;;;;;;14.76;100.00;96350.03;1267179;23;20404;-75
2021/06/09 01:59:43;;;;;;;;;;;;;;;14.76;100.00;96349.22;1261234;23;19905;-75
2021/06/09 02:00:15;;;;;;;;;;;;;;;14.73;100.00;96350.59;1261295;23;19913;-76
2021/06/09 02:00:46;;;;;;;;;;;;;;;14.73;100.00;96357.84;1266651;23;19904;-76
2021/06/09 02:01:16;;;;;;;;;;;;;;;14.73;100.00;96349.78;1260960;23;19905;-76
2021/06/09 02:01:47;;;;;;;;;;;;;;;14.73;100.00;96350.59;1261338;23;20259;-75
2021/06/09 02:02:17;;;;;;;;;;;;;;;14.74;100.00;96349.50;1266539;23;19905;-76
2021/06/09 02:02:47;;;;;;;;;;;;;;;14.74;100.00;96351.38;1266742;23;19900;-76
2021/06/09 02:03:18;;;;;;;;;;;;;;;14.73;100.00;96349.78;1272715;23;19908;-75
2021/06/09 02:03:49;;;;;;;;;;;;;;;14.71;100.00;96343.91;1260493;23;20332;-75
2021/06/09 02:04:19;;;;;;;;;;;;;;;14.72;100.00;96348.97;1260851;23;20243;-75
2021/06/09 02:04:49;;;;;;;;;;;;;;;14.74;100.00;96346.81;1260938;23;19939;-76
2021/06/09 02:05:20;;;;;;;;;;;;;;;14.78;100.00;96349.72;1267428;23;19905;-76
2021/06/09 02:05:50;;;;;;;;;;;;;;;14.82;100.00;96346.16;1267559;23;19901;-76
2021/06/09 02:06:20;;;;;;;;;;;;;;;14.81;100.00;96346.47;1273150;23;20318;-75
2021/06/09 02:06:51;;;;;;;;;;;;;;;14.80;100.00;96352.94;1273090;23;19901;-76
2021/06/09 02:07:22;;;;;;;;;;;;;;;14.79;100.00;96349.47;1273529;23;19905;-75
2021/06/09 02:07:52;;;;;;;;;;;;;;;14.79;100.00;96351.31;1273720;23;20239;-76
2021/06/09 02:08:22;;;;;;;;;;;;;;;14.78;100.00;96349.72;1267274;23;19905;-77
2021/06/09 02:08:53;;;;;;;;;;;;;;;14.77;100.00;96348.94;1267711;23;19900;-76
2021/06/09 02:09:23;;;;;;;;;;;;;;;14.76;100.00;96349.22;1267114;23;19905;-75
2021/06/09 02:09:53;;;;;;;;;;;;;;;14.74;100.00;96348.69;1273206;23;19900;-76
2021/06/09 02:10:24;;;;;;;;;;;;;;;14.74;100.00;96348.69;1254781;23;19984;-76
2021/06/09 02:10:54;;;;;;;;;;;;;;;14.73;100.00;96345.19;1254918;23;20316;-76
2021/06/09 02:11:24;;;;;;;;;;;;;;;14.74;100.00;96346.00;1261682;23;19905;-76
2021/06/09 02:11:54;;;;;;;;;;;;;;;14.73;100.00;96345.19;1255218;23;20338;-76
2021/06/09 02:12:25;;;;;;;;;;;;;;;14.71;100.00;96352.78;1255215;23;19913;-76
2021/06/09 02:12:59;;;;;;;;;;;;;;;14.73;100.00;96353.28;1255624;23;19905;-76
2021/06/09 02:13:30;;;;;;;;;;;;;;;14.73;100.00;96347.09;1260852;23;19909;-76
2021/06/09 02:14:00;;;;;;;;;;;;;;;14.72;100.00;96353.56;1261791;23;19908;-77
2021/06/09 02:14:31;;;;;;;;;;;;;;;14.71;100.00;96354.66;1262017;23;19961;-76
2021/06/09 02:15:01;;;;;;;;;;;;;;;14.70;100.00;96359.25;1260993;23;20240;-76
2021/06/09 02:15:31;;;;;;;;;;;;;;;14.68;100.00;96350.63;1267217;23;19905;-77
2021/06/09 02:16:02;;;;;;;;;;;;;;;14.66;100.00;96352.03;1267202;23;19901;-77
2021/06/09 02:16:32;;;;;;;;;;;;;;;14.67;100.00;96348.25;1279452;23;19905;-76
2021/06/09 02:17:03;;;;;;;;;;;;;;;14.65;100.00;96351.22;1279378;23;19931;-76
2021/06/09 02:17:34;;;;;;;;;;;;;;;14.66;100.00;96354.72;1273193;23;20216;-76
2021/06/09 02:18:09;;;;;;;;;;;;;;;14.65;100.00;96350.44;1273329;23;19928;-77
2021/06/09 02:18:40;;;;;;;;;;;;;;;14.63;100.00;96349.91;1267532;23;19905;-76
2021/06/09 02:19:10;;;;;;;;;;;;;;;14.62;100.00;96353.69;1268172;23;20242;-76
2021/06/09 02:19:40;;;;;;;;;;;;;;;14.63;100.00;96348.00;1268376;23;19901;-77
2021/06/09 02:20:13;;;;;;;;;;;;;;;14.61;100.00;96355.56;1266676;23;19909;-76
2021/06/09 02:20:44;;;;;;;;;;;;;;;14.61;100.00;96350.19;1267403;23;19908;-76
2021/06/09 02:21:14;;;;;;;;;;;;;;;14.58;100.00;96350.75;1267346;23;19940;-75
2021/06/09 02:21:45;;;;;;;;;;;;;;;14.55;100.00;96344.06;1262409;23;20386;-77
2021/06/09 02:22:15;;;;;;;;;;;;;;;14.53;100.00;96351.63;1266918;23;19909;-75
2021/06/09 02:22:45;;;;;;;;;;;;;;;14.51;100.00;96351.09;1260822;23;19902;-75
2021/06/09 02:23:16;;;;;;;;;;;;;;;14.51;100.00;96344.94;1266716;23;19928;-75
2021/06/09 02:23:47;;;;;;;;;;;;;;;14.50;100.00;96352.19;1278846;23;19900;-72
2021/06/09 02:24:17;;;;;;;;;;;;;;;14.47;100.00;96344.69;1260519;23;20339;-72
2021/06/09 02:24:48;;;;;;;;;;;;;;;14.48;100.00;96345.50;1260361;23;20240;-72
2021/06/09 02:25:18;;;;;;;;;;;;;;;14.51;100.00;96347.63;1254495;23;19917;-71
2021/06/09 02:25:49;;;;;;;;;;;;;;;14.51;100.00;96344.94;1254737;23;19992;-71
2021/06/09 02:26:19;;;;;;;;;;;;;;;14.51;100.00;96344.94;1260578;23;19910;-71
2021/06/09 02:26:50;;;;;;;;;;;;;;;14.49;100.00;96347.13;1266716;23;19901;-71
2021/06/09 02:27:20;;;;;;;;;;;;;;;14.49;100.00;96341.75;1260302;23;20351;-71
2021/06/09 02:27:50;;;;;;;;;;;;;;;14.46;100.00;96348.44;1260452;23;19901;-71
2021/06/09 02:28:21;;;;;;;;;;;;;;;14.46;100.00;96343.06;1260447;23;19909;-71
2021/06/09 02:28:51;;;;;;;;;;;;;;;14.46;100.00;96343.06;1260516;23;19902;-71
2021/06/09 02:29:21;;;;;;;;;;;;;;;14.45;100.00;96341.47;1272410;23;19908;-72
2021/06/09 02:29:51;;;;;;;;;;;;;;;14.43;100.00;96335.56;1272640;23;19908;-72
2021/06/09 02:30:22;;;;;;;;;;;;;;;14.42;100.00;96347.41;1278720;23;20316;-72
2021/06/09 02:30:52;;;;;;;;;;;;;;;14.42;100.00;96346.59;1279117;23;19934;-72
2021/06/09 02:31:22;;;;;;;;;;;;;;;14.40;100.00;96338.84;1278717;23;19917;-71
2021/06/09 02:31:52;;;;;;;;;;;;;;;14.37;100.00;96342.09;1278685;23;19900;-71
2021/06/09 02:32:23;;;;;;;;;;;;;;;14.38;100.00;96343.69;1272441;23;19921;-72
2021/06/09 02:32:53;;;;;;;;;;;;;;;14.35;100.00;96336.19;1266547;23;19907;-71
2021/06/09 02:33:24;;;;;;;;;;;;;;;14.28;100.00;96344.63;1266483;23;19909;-71
2021/06/09 02:33:54;;;;;;;;;;;;;;;14.22;100.00;96343.03;1272578;23;19924;-71
2021/06/09 02:34:25;;;;;;;;;;;;;;;14.24;100.00;96345.47;1279006;23;19908;-71
2021/06/09 02:34:55;;;;;;;;;;;;;;;14.22;100.00;96340.34;1284893;23;19904;-71
2021/06/09 02:35:25;;;;;;;;;;;;;;;14.23;100.00;96341.19;1284891;23;19908;-71
2021/06/09 02:35:56;;;;;;;;;;;;;;;14.25;100.00;96342.47;1279083;23;19928;-71
2021/06/09 02:36:26;;;;;;;;;;;;;;;14.27;100.00;96344.88;1272556;23;20341;-71
2021/06/09 02:36:56;;;;;;;;;;;;;;;14.29;100.00;96348.09;1266324;23;20302;-71